Portada
METAR-TAF:

METAR-TAF

Aeroports :

Shaw Air Force Base

Sumter, Carolina del Sud, Estats Units d'Amèrica

latitud: 33-58N, longitud: 080-29W, altitud: 74 m

Observació

L'informe es va fer fa 45 minuts, a les 03:56 UTC
Vent 8 kt del Nord-Est
Temperatura 8°C
Humitat 76%
Pressió 1012 hPa
Visibilitat: 16.1 km
Cel clar

METAR: KSSC 180356Z AUTO 04008KT 10SM CLR 08/04 A2989 RMK AO2 SLP124 T00770043 $

Hora: 23:41 (04:41 UTC)


TAF: manca

Observacions i pronòstics meteorològics de més de 4000 aeroports (METAR i TAF).

Les estacions disponibles són els punts grocs i vermells al mapa.

Posi el ratolí al punt desitjat per veure el nom de l'estació.

Feu clic per veure les observacions i els pronòstics meteorològics.

Per canviar el mapa: feu clic els botons verds amb una creu de color negre per apropar; al botó verd amb un guió per allunyar la imatge; o en les fletxes verdes per a mapes adjacents.


METAR-TAF: